createdAt,value
2018-11-28T00:00:23.780Z,20.70
2018-11-28T00:02:52.463Z,18.27
2018-11-28T00:05:21.154Z,19.93
2018-11-28T00:08:09.526Z,20.97
2018-11-28T00:10:38.266Z,20.27
2018-11-28T00:13:06.970Z,21.27
2018-11-28T00:15:35.832Z,18.00
2018-11-28T00:18:05.266Z,19.90
2018-11-28T00:20:40.679Z,19.73
2018-11-28T00:23:09.385Z,18.87
2018-11-28T00:25:38.232Z,19.60
2018-11-28T00:28:06.945Z,19.00
2018-11-28T00:30:36.049Z,18.63
2018-11-28T00:33:05.230Z,19.67
2018-11-28T00:35:33.931Z,20.07
2018-11-28T00:38:02.899Z,19.60
2018-11-28T00:40:31.599Z,21.27
2018-11-28T00:43:00.313Z,19.27
2018-11-28T00:45:29.119Z,19.80
2018-11-28T00:47:57.830Z,21.57
2018-11-28T00:50:27.277Z,19.33
2018-11-28T00:52:55.981Z,20.60
2018-11-28T00:55:24.687Z,20.97
2018-11-28T00:57:53.381Z,19.37
2018-11-28T01:00:23.388Z,19.37
2018-11-28T01:02:52.154Z,20.63
2018-11-28T01:05:20.890Z,19.10
2018-11-28T01:07:50.079Z,19.40
2018-11-28T01:10:19.730Z,19.33
2018-11-28T01:12:49.125Z,20.20
2018-11-28T01:15:18.418Z,18.90
2018-11-28T01:17:47.158Z,20.20
2018-11-28T01:20:17.102Z,18.53
2018-11-28T01:22:45.827Z,19.57
2018-11-28T01:25:15.431Z,20.70
2018-11-28T01:27:44.438Z,20.40
2018-11-28T01:30:29.781Z,21.93
2018-11-28T01:32:58.429Z,19.93
2018-11-28T01:35:27.379Z,20.50
2018-11-28T01:37:56.111Z,19.67
2018-11-28T01:40:25.039Z,20.97
2018-11-28T01:42:53.851Z,20.93
2018-11-28T01:45:23.250Z,20.12
2018-11-28T01:47:51.991Z,21.57
2018-11-28T01:50:21.331Z,21.52
2018-11-28T01:52:50.229Z,19.93
2018-11-28T01:55:20.246Z,20.17
2018-11-28T01:57:49.251Z,21.43
2018-11-28T02:00:19.999Z,19.02
2018-11-28T02:02:49.991Z,20.05
2018-11-28T02:05:18.682Z,21.70
2018-11-28T02:07:47.409Z,20.70
2018-11-28T02:10:16.845Z,20.60
2018-11-28T02:12:45.590Z,22.23
2018-11-28T02:15:16.203Z,19.97
2018-11-28T02:17:44.906Z,21.37
2018-11-28T02:20:14.416Z,21.02
2018-11-28T02:22:43.163Z,22.27
2018-11-28T02:25:14.472Z,21.25
2018-11-28T02:27:43.230Z,20.80
2018-11-28T02:30:12.865Z,19.37
2018-11-28T02:32:41.888Z,19.60
2018-11-28T02:35:14.549Z,21.47
2018-11-28T02:37:43.340Z,21.77
2018-11-28T02:40:14.762Z,21.95
2018-11-28T02:42:43.533Z,22.30
2018-11-28T02:45:14.579Z,22.30
2018-11-28T02:47:43.278Z,21.37
2018-11-28T02:50:11.987Z,20.90
2018-11-28T02:52:40.701Z,22.83
2018-11-28T02:55:10.503Z,22.50
2018-11-28T02:57:39.530Z,23.17
2018-11-28T03:00:11.711Z,24.07
2018-11-28T03:02:40.411Z,22.63
2018-11-28T03:05:11.278Z,22.87
2018-11-28T03:07:40.013Z,23.67
2018-11-28T03:10:12.190Z,21.73
2018-11-28T03:12:40.908Z,21.43
2018-11-28T03:15:12.217Z,23.37
2018-11-28T03:17:40.915Z,22.85
2018-11-28T03:20:10.484Z,23.62
2018-11-28T03:22:39.173Z,23.33
2018-11-28T03:25:09.397Z,21.90
2018-11-28T03:27:38.109Z,21.60
2018-11-28T03:30:14.187Z,23.57
2018-11-28T03:32:42.848Z,21.57
2018-11-28T03:35:13.470Z,21.93
2018-11-28T03:37:42.170Z,21.97
2018-11-28T03:40:10.925Z,25.43
2018-11-28T03:42:39.834Z,23.37
2018-11-28T03:45:10.096Z,22.27
2018-11-28T03:47:38.809Z,25.07
2018-11-28T03:50:08.858Z,21.37
2018-11-28T03:52:38.405Z,22.37
2018-11-28T03:55:08.357Z,23.23
2018-11-28T03:57:37.088Z,24.23
2018-11-28T04:00:09.280Z,22.47
2018-11-28T04:02:38.158Z,22.57
2018-11-28T04:05:07.104Z,21.97
2018-11-28T04:07:35.854Z,24.23
2018-11-28T04:10:06.738Z,22.73
2018-11-28T04:12:35.434Z,22.90
2018-11-28T04:15:06.446Z,22.90
2018-11-28T04:17:35.173Z,24.87
2018-11-28T04:20:04.497Z,22.50
2018-11-28T04:22:33.207Z,25.23
2018-11-28T04:25:01.917Z,23.60
2018-11-28T04:27:30.862Z,21.93
2018-11-28T04:29:59.575Z,21.93
2018-11-28T04:32:28.291Z,22.97
2018-11-28T04:34:56.994Z,22.50
2018-11-28T04:37:25.695Z,22.70
2018-11-28T04:39:54.440Z,23.20
2018-11-28T04:42:23.136Z,25.10
2018-11-28T04:44:51.835Z,24.43
2018-11-28T04:47:20.554Z,24.67
2018-11-28T04:49:49.312Z,24.40
2018-11-28T04:52:18.010Z,23.07
2018-11-28T04:54:46.723Z,23.87
2018-11-28T04:57:15.423Z,22.93
2018-11-28T04:59:44.126Z,23.47
2018-11-28T05:02:12.809Z,24.32
2018-11-28T05:04:41.511Z,23.98
2018-11-28T05:07:25.921Z,21.60
2018-11-28T05:09:54.766Z,23.03
2018-11-28T05:12:23.500Z,22.20
2018-11-28T05:14:52.461Z,25.90
2018-11-28T05:17:21.269Z,22.43
2018-11-28T05:19:50.267Z,24.70
2018-11-28T05:22:18.982Z,24.07
2018-11-28T05:24:48.233Z,24.70
2018-11-28T05:27:16.948Z,22.87
2018-11-28T05:29:45.638Z,21.70
2018-11-28T05:32:14.462Z,24.17
2018-11-28T05:34:43.180Z,22.97
2018-11-28T05:37:12.142Z,24.87
2018-11-28T05:39:40.946Z,22.13
2018-11-28T05:42:09.658Z,22.93
2018-11-28T05:44:38.511Z,23.97
2018-11-28T05:47:07.217Z,23.10
2018-11-28T05:49:36.273Z,23.65
2018-11-28T05:52:05.558Z,24.43
2018-11-28T05:54:34.468Z,23.33
2018-11-28T05:57:03.468Z,24.50
2018-11-28T05:59:32.471Z,24.32
2018-11-28T06:02:01.287Z,23.50
2018-11-28T06:04:30.147Z,24.70
2018-11-28T06:06:58.857Z,23.77
2018-11-28T06:09:27.561Z,21.93
2018-11-28T06:11:56.254Z,22.30
2018-11-28T06:14:25.170Z,24.77
2018-11-28T06:16:54.329Z,23.10
2018-11-28T06:19:23.777Z,25.03
2018-11-28T06:21:52.790Z,24.67
2018-11-28T06:24:21.754Z,24.45
2018-11-28T06:26:50.578Z,22.73
2018-11-28T06:29:19.302Z,22.90
2018-11-28T06:31:48.015Z,24.63
2018-11-28T06:34:16.809Z,24.67
2018-11-28T06:36:45.797Z,22.93
2018-11-28T06:39:14.850Z,21.03
2018-11-28T06:41:43.827Z,23.47
2018-11-28T06:44:12.781Z,22.57
2018-11-28T06:46:41.767Z,22.43
2018-11-28T06:49:10.765Z,19.93
2018-11-28T06:51:39.480Z,22.77
2018-11-28T06:54:08.186Z,23.03
2018-11-28T06:56:36.894Z,22.23
2018-11-28T06:59:06.682Z,23.00
2018-11-28T07:01:35.397Z,23.33
2018-11-28T07:04:04.989Z,24.47
2018-11-28T07:06:33.700Z,21.37
2018-11-28T07:09:02.406Z,22.77
2018-11-28T07:11:31.393Z,21.97
2018-11-28T07:14:00.094Z,23.03
2018-11-28T07:16:29.062Z,23.03
2018-11-28T07:19:13.463Z,22.83
2018-11-28T07:21:42.445Z,23.93
2018-11-28T07:24:11.159Z,22.73
2018-11-28T07:26:39.907Z,23.83
2018-11-28T07:32:08.626Z,25.27
2018-11-28T07:34:37.347Z,21.83
2018-11-28T07:37:06.324Z,23.17
2018-11-28T07:39:35.035Z,22.37
2018-11-28T07:42:04.946Z,20.48
2018-11-28T07:44:33.666Z,21.07
2018-11-28T07:47:08.266Z,22.40
2018-11-28T07:49:36.977Z,21.33
2018-11-28T07:52:05.896Z,20.30
2018-11-28T07:54:34.982Z,23.60
2018-11-28T07:57:04.069Z,22.00
2018-11-28T07:59:32.751Z,21.70
2018-11-28T08:02:01.607Z,21.63
2018-11-28T08:04:30.389Z,21.30
2018-11-28T08:06:59.028Z,20.97
2018-11-28T08:09:28.298Z,21.33
2018-11-28T08:11:57.013Z,21.60
2018-11-28T08:14:25.958Z,21.57
2018-11-28T08:16:54.676Z,21.77
2018-11-28T08:19:24.136Z,21.37
2018-11-28T08:21:52.635Z,21.93
2018-11-28T08:24:21.023Z,21.33
2018-11-28T08:26:49.730Z,20.03
2018-11-28T08:29:18.708Z,20.13
2018-11-28T08:31:47.418Z,21.00
2018-11-28T08:34:16.125Z,20.50
2018-11-28T08:36:44.841Z,21.80
2018-11-28T08:39:13.542Z,21.67
2018-11-28T08:41:42.270Z,21.87
2018-11-28T08:44:11.255Z,21.42
2018-11-28T08:46:39.969Z,21.47
2018-11-28T08:49:08.683Z,20.87
2018-11-28T08:51:37.484Z,20.27
2018-11-28T08:54:06.101Z,19.40
2018-11-28T08:56:34.825Z,19.17
2018-11-28T08:59:04.583Z,21.40
2018-11-28T09:01:33.578Z,19.43
2018-11-28T09:04:02.288Z,20.23
2018-11-28T09:06:30.990Z,21.27
2018-11-28T09:08:59.698Z,21.27
2018-11-28T09:11:28.415Z,21.30
2018-11-28T09:13:57.463Z,21.30
2018-11-28T09:16:26.154Z,20.50
2018-11-28T09:18:54.877Z,20.77
2018-11-28T09:21:23.819Z,19.20
2018-11-28T09:23:52.947Z,20.97
2018-11-28T09:26:21.641Z,19.45
2018-11-28T09:28:50.336Z,19.50
2018-11-28T09:31:19.047Z,22.80
2018-11-28T09:33:47.860Z,20.77
2018-11-28T09:36:16.562Z,20.60
2018-11-28T09:38:45.391Z,20.57
2018-11-28T09:41:14.102Z,20.47
2018-11-28T09:43:42.814Z,20.23
2018-11-28T09:46:11.524Z,19.87
2018-11-28T09:48:40.229Z,21.37
2018-11-28T09:51:08.942Z,22.50
2018-11-28T09:53:37.689Z,20.67
2018-11-28T09:56:06.358Z,20.03
2018-11-28T09:58:35.072Z,20.53
2018-11-28T10:01:04.647Z,19.40
2018-11-28T10:03:33.362Z,20.77
2018-11-28T10:06:02.133Z,20.83
2018-11-28T10:08:30.797Z,21.07
2018-11-28T10:10:59.518Z,21.13
2018-11-28T10:13:28.241Z,19.67
2018-11-28T10:15:56.930Z,21.57
2018-11-28T10:18:25.626Z,21.27
2018-11-28T10:20:54.419Z,20.97
2018-11-28T10:23:23.112Z,19.65
2018-11-28T10:25:51.834Z,20.93
2018-11-28T10:28:20.916Z,21.07
2018-11-28T10:30:49.614Z,20.17
2018-11-28T10:33:18.588Z,19.40
2018-11-28T10:35:47.440Z,20.93
2018-11-28T10:38:16.138Z,20.65
2018-11-28T10:40:44.947Z,21.20
2018-11-28T10:43:13.648Z,20.95
2018-11-28T10:45:42.341Z,20.87
2018-11-28T10:48:12.088Z,22.82
2018-11-28T10:50:40.811Z,21.10
2018-11-28T10:53:09.778Z,20.30
2018-11-28T10:55:38.488Z,21.67
2018-11-28T10:58:07.978Z,21.40
2018-11-28T11:00:42.250Z,22.23
2018-11-28T11:03:16.721Z,21.70
2018-11-28T11:05:50.850Z,22.20
2018-11-28T11:08:25.881Z,21.42
2018-11-28T11:11:30.885Z,21.23
2018-11-28T11:14:04.950Z,20.40
2018-11-28T11:16:33.653Z,22.60
2018-11-28T11:19:02.519Z,21.57
2018-11-28T11:21:31.376Z,20.03
2018-11-28T11:24:00.090Z,21.43
2018-11-28T11:26:29.177Z,22.70
2018-11-28T11:28:57.882Z,22.83
2018-11-28T11:31:26.722Z,22.23
2018-11-28T11:33:55.432Z,22.27
2018-11-28T11:36:24.393Z,20.87
2018-11-28T11:38:53.391Z,22.67
2018-11-28T11:41:22.374Z,21.77
2018-11-28T11:43:51.067Z,20.87
2018-11-28T11:46:20.051Z,21.37
2018-11-28T11:48:48.758Z,21.23
2018-11-28T11:51:17.723Z,20.15
2018-11-28T11:53:46.436Z,21.90
2018-11-28T11:56:15.395Z,20.37
2018-11-28T11:58:44.111Z,21.03
2018-11-28T12:01:13.074Z,19.00
2018-11-28T12:03:41.778Z,22.63
2018-11-28T12:06:10.490Z,19.63
2018-11-28T12:08:39.210Z,20.80
2018-11-28T12:11:08.135Z,21.57
2018-11-28T12:13:36.831Z,21.10
2018-11-28T12:16:06.126Z,21.03
2018-11-28T12:18:35.111Z,20.97
2018-11-28T12:21:06.550Z,19.75
2018-11-28T12:23:35.848Z,19.30
2018-11-28T12:26:04.548Z,20.67
2018-11-28T12:28:33.550Z,19.83
2018-11-28T12:31:02.365Z,20.27
2018-11-28T12:33:31.208Z,19.70
2018-11-28T12:35:59.919Z,19.93
2018-11-28T12:38:28.614Z,20.00
2018-11-28T12:40:58.596Z,20.10
2018-11-28T12:43:27.286Z,19.60
2018-11-28T12:45:56.158Z,20.20
2018-11-28T12:48:24.883Z,20.87
2018-11-28T12:50:53.594Z,19.30
2018-11-28T12:53:22.298Z,18.50
2018-11-28T12:55:51.112Z,19.07
2018-11-28T12:58:20.957Z,19.80
2018-11-28T13:00:49.678Z,18.37
2018-11-28T13:03:19.106Z,20.20
2018-11-28T13:05:48.178Z,19.63
2018-11-28T13:08:16.878Z,20.02
2018-11-28T13:10:45.603Z,19.13
2018-11-28T13:13:14.316Z,19.00
2018-11-28T13:15:43.024Z,18.77
2018-11-28T13:18:11.884Z,18.27
2018-11-28T13:20:42.026Z,17.80
2018-11-28T13:23:13.253Z,19.13
2018-11-28T13:25:42.034Z,17.87
2018-11-28T13:28:10.754Z,18.03
2018-11-28T13:30:39.800Z,17.50
2018-11-28T13:33:09.015Z,18.27
2018-11-28T13:35:37.909Z,17.90
2018-11-28T13:38:09.096Z,18.43
2018-11-28T13:40:37.814Z,19.03
2018-11-28T13:43:06.839Z,17.70
2018-11-28T13:45:37.407Z,17.97
2018-11-28T13:48:06.382Z,18.53
2018-11-28T13:50:35.221Z,17.93
2018-11-28T13:53:10.632Z,17.33
2018-11-28T13:55:44.511Z,17.23
2018-11-28T13:58:13.257Z,17.80
2018-11-28T14:00:41.966Z,16.57
2018-11-28T14:03:10.667Z,17.80
2018-11-28T14:05:39.814Z,17.13
2018-11-28T14:08:08.586Z,16.97
2018-11-28T14:10:37.574Z,16.83
2018-11-28T14:13:06.598Z,17.63
2018-11-28T14:15:35.550Z,15.30
2018-11-28T14:18:10.850Z,17.27
2018-11-28T14:20:39.550Z,16.10
2018-11-28T14:23:08.265Z,18.03
2018-11-28T14:25:37.211Z,16.83
2018-11-28T14:28:07.034Z,17.17
2018-11-28T14:30:36.538Z,14.83
2018-11-28T14:33:05.254Z,14.93
2018-11-28T14:35:34.326Z,16.53
2018-11-28T14:38:03.267Z,15.27
2018-11-28T14:40:32.258Z,13.67
2018-11-28T14:43:01.298Z,15.50
2018-11-28T14:45:30.347Z,14.90
2018-11-28T14:47:59.214Z,15.23
2018-11-28T14:50:28.785Z,13.20
2018-11-28T14:52:58.985Z,13.47
2018-11-28T14:55:28.782Z,13.37
2018-11-28T14:57:57.978Z,13.17
2018-11-28T15:00:27.959Z,13.47
2018-11-28T15:02:58.279Z,14.53
2018-11-28T15:05:41.450Z,13.03
2018-11-28T15:08:12.560Z,13.77
2018-11-28T15:10:44.706Z,14.20
2018-11-28T15:13:13.401Z,14.30
2018-11-28T15:15:42.390Z,12.35
2018-11-28T15:18:11.104Z,13.13
2018-11-28T15:20:39.798Z,12.97
2018-11-28T15:23:08.510Z,12.63
2018-11-28T15:25:37.221Z,13.13
2018-11-28T15:28:06.123Z,12.63
2018-11-28T15:30:34.822Z,13.13
2018-11-28T15:33:03.546Z,12.33
2018-11-28T15:35:32.318Z,12.70
2018-11-28T15:38:01.037Z,13.50
2018-11-28T15:40:29.729Z,13.83
2018-11-28T15:42:58.452Z,18.67
2018-11-28T15:45:33.066Z,22.57
2018-11-28T15:48:02.054Z,19.48
2018-11-28T15:50:31.062Z,15.83
2018-11-28T15:53:00.043Z,18.97
2018-11-28T15:55:29.064Z,15.83
2018-11-28T15:57:57.775Z,20.17
2018-11-28T16:00:27.325Z,16.40
2018-11-28T16:02:57.546Z,14.83
2018-11-28T16:05:27.163Z,17.00
2018-11-28T16:07:56.160Z,18.30
2018-11-28T16:10:33.550Z,17.47
2018-11-28T16:13:05.119Z,18.27
2018-11-28T16:15:38.365Z,15.60
2018-11-28T16:18:07.162Z,15.63
2018-11-28T16:20:36.150Z,15.17
2018-11-28T16:23:07.311Z,15.58
2018-11-28T16:25:36.311Z,15.60
2018-11-28T16:28:05.418Z,15.13
2018-11-28T16:30:34.623Z,13.87
2018-11-28T16:33:04.495Z,13.77
2018-11-28T16:35:33.546Z,14.73
2018-11-28T16:38:02.515Z,17.87
2018-11-28T16:40:31.703Z,26.67
2018-11-28T16:43:06.546Z,17.33
2018-11-28T16:45:35.444Z,15.83
2018-11-28T16:48:04.646Z,17.30
2018-11-28T16:50:33.619Z,16.13
2018-11-28T16:53:03.014Z,14.33
2018-11-28T16:55:31.903Z,15.33
2018-11-28T16:58:01.079Z,15.23
2018-11-28T17:00:30.836Z,15.27
2018-11-28T17:02:59.779Z,14.40
2018-11-28T17:05:28.761Z,15.70
2018-11-28T17:07:57.753Z,16.33
2018-11-28T17:10:28.873Z,15.15
2018-11-28T17:12:58.393Z,13.73
2018-11-28T17:15:27.195Z,14.77
2018-11-28T17:17:56.179Z,14.20
2018-11-28T17:20:26.090Z,17.03
2018-11-28T17:22:56.839Z,16.50
2018-11-28T17:25:28.670Z,14.97
2018-11-28T17:27:57.382Z,14.03
2018-11-28T17:30:27.742Z,15.40
2018-11-28T17:32:56.542Z,16.53
2018-11-28T17:35:25.263Z,16.03
2018-11-28T17:37:54.126Z,14.83
2018-11-28T17:40:25.254Z,15.35
2018-11-28T17:42:57.181Z,17.77
2018-11-28T17:45:26.690Z,18.00
2018-11-28T17:47:55.560Z,18.47
2018-11-28T17:50:25.655Z,17.73
2018-11-28T17:53:02.928Z,18.93
2018-11-28T17:55:39.259Z,21.23
2018-11-28T17:58:08.181Z,19.43
2018-11-28T18:00:37.157Z,18.67
2018-11-28T18:03:05.866Z,20.40
2018-11-28T18:05:34.667Z,22.00
2018-11-28T18:08:03.398Z,20.77
2018-11-28T18:10:32.102Z,22.27
2018-11-28T18:13:13.508Z,21.60
2018-11-28T18:15:44.644Z,21.93
2018-11-28T18:18:15.003Z,21.40
2018-11-28T18:20:43.753Z,19.37
2018-11-28T18:23:12.691Z,21.07
2018-11-28T18:25:41.981Z,20.90
2018-11-28T18:28:11.882Z,22.53
2018-11-28T18:30:40.579Z,22.60
2018-11-28T18:33:10.694Z,23.27
2018-11-28T18:35:39.850Z,22.27
2018-11-28T18:38:08.581Z,24.23
2018-11-28T18:40:37.655Z,23.20
2018-11-28T18:43:07.023Z,22.00
2018-11-28T18:45:37.645Z,22.83
2018-11-28T18:48:06.753Z,21.47
2018-11-28T18:50:35.463Z,22.03
2018-11-28T18:53:04.985Z,22.98
2018-11-28T18:55:34.134Z,22.60
2018-11-28T18:58:02.882Z,21.77
2018-11-28T19:00:31.858Z,23.37
2018-11-28T19:03:01.290Z,21.03
2018-11-28T19:05:30.168Z,22.00
2018-11-28T19:07:59.134Z,21.35
2018-11-28T19:10:27.854Z,21.63
2018-11-28T19:12:56.572Z,22.47
2018-11-28T19:15:26.305Z,24.73
2018-11-28T19:17:55.760Z,22.13
2018-11-28T19:20:41.374Z,22.60
2018-11-28T19:23:10.189Z,22.77
2018-11-28T19:25:39.146Z,22.93
2018-11-28T19:28:07.927Z,23.03
2018-11-28T19:30:40.659Z,22.93
2018-11-28T19:33:10.782Z,22.50
2018-11-28T19:35:39.549Z,23.00
2018-11-28T19:38:09.684Z,21.40
2018-11-28T19:40:44.418Z,22.37
2018-11-28T19:43:13.298Z,21.80
2018-11-28T19:45:42.289Z,21.47
2018-11-28T19:48:11.282Z,19.98
2018-11-28T19:50:40.022Z,21.87
2018-11-28T19:53:09.342Z,20.03
2018-11-28T19:55:38.326Z,21.03
2018-11-28T19:58:07.275Z,19.63
2018-11-28T20:00:37.161Z,19.67
2018-11-28T20:03:06.425Z,20.77
2018-11-28T20:05:35.351Z,19.67
2018-11-28T20:08:04.809Z,20.82
2018-11-28T20:10:33.524Z,20.10
2018-11-28T20:13:02.438Z,20.87
2018-11-28T20:15:31.731Z,20.43
2018-11-28T20:18:00.567Z,18.50
2018-11-28T20:20:29.294Z,19.10
2018-11-28T20:22:58.097Z,21.70
2018-11-28T20:25:26.837Z,18.67
2018-11-28T20:27:57.719Z,18.13
2018-11-28T20:30:29.033Z,17.80
2018-11-28T20:32:57.778Z,17.47
2018-11-28T20:35:26.594Z,17.80
2018-11-28T20:37:55.434Z,18.57
2018-11-28T20:40:24.482Z,18.10
2018-11-28T20:42:54.186Z,16.57
2018-11-28T20:45:22.930Z,18.00
2018-11-28T20:47:51.728Z,16.03
2018-11-28T20:50:23.683Z,16.97
2018-11-28T20:52:55.097Z,17.50
2018-11-28T20:55:23.610Z,17.57
2018-11-28T20:57:52.590Z,16.53
2018-11-28T21:00:22.681Z,15.15
2018-11-28T21:02:51.392Z,15.93
2018-11-28T21:05:20.181Z,16.77
2018-11-28T21:07:48.905Z,15.93
2018-11-28T21:10:23.230Z,15.30
2018-11-28T21:12:52.220Z,14.90
2018-11-28T21:15:21.100Z,16.10
2018-11-28T21:17:50.515Z,15.38
2018-11-28T21:20:20.163Z,14.70
2018-11-28T21:22:58.803Z,14.63
2018-11-28T21:25:27.518Z,15.00
2018-11-28T21:27:56.481Z,15.03
2018-11-28T21:30:25.193Z,16.03
2018-11-28T21:32:54.828Z,15.63
2018-11-28T21:35:28.809Z,15.33
2018-11-28T21:37:57.513Z,15.30
2018-11-28T21:40:26.758Z,14.37
2018-11-28T21:42:55.658Z,14.87
2018-11-28T21:45:25.392Z,15.43
2018-11-28T21:47:54.242Z,14.93
2018-11-28T21:50:22.952Z,15.57
2018-11-28T21:52:51.906Z,14.97
2018-11-28T21:55:21.894Z,14.73
2018-11-28T21:57:51.007Z,14.53
2018-11-28T22:00:25.418Z,13.80
2018-11-28T22:02:54.371Z,13.83
2018-11-28T22:05:23.430Z,13.80
2018-11-28T22:07:52.351Z,13.87
2018-11-28T22:10:23.367Z,13.77
2018-11-28T22:12:52.587Z,13.33
2018-11-28T22:15:21.603Z,12.40
2018-11-28T22:17:55.558Z,13.30
2018-11-28T22:20:24.926Z,14.17
2018-11-28T22:22:54.019Z,14.07
2018-11-28T22:25:23.984Z,11.80
2018-11-28T22:27:53.010Z,13.07
2018-11-28T22:30:22.657Z,13.40
2018-11-28T22:32:51.453Z,12.93
2018-11-28T22:35:20.509Z,12.80
2018-11-28T22:37:49.445Z,12.73
2018-11-28T22:40:22.506Z,12.60
2018-11-28T22:42:51.419Z,11.90
2018-11-28T22:45:21.542Z,13.30
2018-11-28T22:47:50.337Z,13.13
2018-11-28T22:50:19.330Z,14.30
2018-11-28T22:52:48.301Z,13.10
2018-11-28T22:55:17.889Z,13.17
2018-11-28T22:57:46.926Z,13.17
2018-11-28T23:00:23.129Z,13.37
2018-11-28T23:02:58.082Z,12.33
2018-11-28T23:05:28.957Z,13.40
2018-11-28T23:07:58.999Z,12.47
2018-11-28T23:10:27.690Z,13.53
2018-11-28T23:12:56.497Z,12.63
2018-11-28T23:15:25.211Z,12.27
2018-11-28T23:17:55.323Z,12.70
2018-11-28T23:20:22.930Z,12.95
2018-11-28T23:22:51.882Z,12.10
2018-11-28T23:25:20.899Z,12.17
2018-11-28T23:27:51.060Z,11.97
2018-11-28T23:30:19.783Z,12.77
2018-11-28T23:32:50.447Z,12.43
2018-11-28T23:35:19.379Z,12.03
2018-11-28T23:37:48.894Z,11.67
2018-11-28T23:40:25.519Z,12.35
2018-11-28T23:42:54.806Z,12.37
2018-11-28T23:45:23.929Z,11.93
2018-11-28T23:47:52.850Z,12.07
2018-11-28T23:50:23.423Z,11.50
2018-11-28T23:52:53.143Z,11.33
2018-11-28T23:55:22.738Z,11.07
2018-11-28T23:57:51.790Z,11.40
